sensor_id;sensor_type;location;lat;lon;timestamp;P1;durP1;ratioP1;P2;durP2;ratioP2
15858;SDS011;8029;52.202;7.308;2023-01-26T00:02:21;37.13;;;25.77;;
15858;SDS011;8029;52.202;7.308;2023-01-26T00:04:46;44.80;;;28.10;;
15858;SDS011;8029;52.202;7.308;2023-01-26T00:07:12;43.67;;;26.30;;
15858;SDS011;8029;52.202;7.308;2023-01-26T00:09:38;40.47;;;29.17;;
15858;SDS011;8029;52.202;7.308;2023-01-26T00:12:05;34.53;;;25.17;;
15858;SDS011;8029;52.202;7.308;2023-01-26T00:14:51;42.43;;;26.80;;
15858;SDS011;8029;52.202;7.308;2023-01-26T00:17:19;48.93;;;28.67;;
15858;SDS011;8029;52.202;7.308;2023-01-26T00:19:50;38.17;;;26.50;;
15858;SDS011;8029;52.202;7.308;2023-01-26T00:22:17;38.67;;;25.47;;
15858;SDS011;8029;52.202;7.308;2023-01-26T00:24:42;37.97;;;25.63;;
15858;SDS011;8029;52.202;7.308;2023-01-26T00:27:08;42.17;;;26.43;;
15858;SDS011;8029;52.202;7.308;2023-01-26T00:29:34;51.80;;;28.60;;
15858;SDS011;8029;52.202;7.308;2023-01-26T00:32:00;40.63;;;27.67;;
15858;SDS011;8029;52.202;7.308;2023-01-26T00:34:26;40.13;;;25.73;;
15858;SDS011;8029;52.202;7.308;2023-01-26T00:36:52;58.87;;;28.63;;
15858;SDS011;8029;52.202;7.308;2023-01-26T00:39:18;48.07;;;29.37;;
15858;SDS011;8029;52.202;7.308;2023-01-26T00:41:44;50.53;;;27.87;;
15858;SDS011;8029;52.202;7.308;2023-01-26T00:44:29;41.27;;;27.00;;
15858;SDS011;8029;52.202;7.308;2023-01-26T00:46:54;32.93;;;23.63;;
15858;SDS011;8029;52.202;7.308;2023-01-26T00:49:20;41.20;;;27.37;;
15858;SDS011;8029;52.202;7.308;2023-01-26T00:51:46;38.97;;;27.73;;
15858;SDS011;8029;52.202;7.308;2023-01-26T00:54:13;33.73;;;25.63;;
15858;SDS011;8029;52.202;7.308;2023-01-26T00:56:39;38.33;;;27.80;;
15858;SDS011;8029;52.202;7.308;2023-01-26T00:59:05;35.00;;;25.17;;
15858;SDS011;8029;52.202;7.308;2023-01-26T01:01:33;74.83;;;31.63;;
15858;SDS011;8029;52.202;7.308;2023-01-26T01:03:58;39.07;;;27.47;;
15858;SDS011;8029;52.202;7.308;2023-01-26T01:06:24;36.77;;;25.63;;
15858;SDS011;8029;52.202;7.308;2023-01-26T01:08:50;37.27;;;24.33;;
15858;SDS011;8029;52.202;7.308;2023-01-26T01:11:16;35.57;;;25.47;;
15858;SDS011;8029;52.202;7.308;2023-01-26T01:13:42;35.80;;;25.63;;
15858;SDS011;8029;52.202;7.308;2023-01-26T01:16:09;40.13;;;25.80;;
15858;SDS011;8029;52.202;7.308;2023-01-26T01:18:36;31.23;;;22.50;;
15858;SDS011;8029;52.202;7.308;2023-01-26T01:21:06;42.80;;;26.03;;
15858;SDS011;8029;52.202;7.308;2023-01-26T01:23:32;35.53;;;23.90;;
15858;SDS011;8029;52.202;7.308;2023-01-26T01:25:58;33.87;;;22.93;;
15858;SDS011;8029;52.202;7.308;2023-01-26T01:28:25;36.10;;;24.37;;
15858;SDS011;8029;52.202;7.308;2023-01-26T01:30:51;40.87;;;24.37;;
15858;SDS011;8029;52.202;7.308;2023-01-26T01:33:17;36.20;;;24.70;;
15858;SDS011;8029;52.202;7.308;2023-01-26T01:35:43;46.33;;;27.70;;
15858;SDS011;8029;52.202;7.308;2023-01-26T01:38:09;33.10;;;23.10;;
15858;SDS011;8029;52.202;7.308;2023-01-26T01:40:35;35.73;;;22.33;;
15858;SDS011;8029;52.202;7.308;2023-01-26T01:43:01;38.00;;;24.73;;
15858;SDS011;8029;52.202;7.308;2023-01-26T01:47:59;54.10;;;28.20;;
15858;SDS011;8029;52.202;7.308;2023-01-26T01:50:28;38.10;;;24.60;;
15858;SDS011;8029;52.202;7.308;2023-01-26T01:52:55;28.37;;;22.63;;
15858;SDS011;8029;52.202;7.308;2023-01-26T01:55:21;27.63;;;20.73;;
15858;SDS011;8029;52.202;7.308;2023-01-26T01:57:50;31.47;;;21.53;;
15858;SDS011;8029;52.202;7.308;2023-01-26T02:00:18;38.67;;;23.27;;
15858;SDS011;8029;52.202;7.308;2023-01-26T02:02:45;34.97;;;23.43;;
15858;SDS011;8029;52.202;7.308;2023-01-26T02:05:57;40.73;;;23.10;;
15858;SDS011;8029;52.202;7.308;2023-01-26T02:09:04;31.00;;;21.60;;
15858;SDS011;8029;52.202;7.308;2023-01-26T02:13:41;28.47;;;21.40;;
15858;SDS011;8029;52.202;7.308;2023-01-26T02:16:09;37.33;;;24.47;;
15858;SDS011;8029;52.202;7.308;2023-01-26T02:18:35;40.47;;;22.67;;
15858;SDS011;8029;52.202;7.308;2023-01-26T02:21:03;32.20;;;22.00;;
15858;SDS011;8029;52.202;7.308;2023-01-26T02:26:22;31.57;;;21.87;;
15858;SDS011;8029;52.202;7.308;2023-01-26T02:28:48;43.10;;;23.67;;
15858;SDS011;8029;52.202;7.308;2023-01-26T02:31:15;31.53;;;20.67;;
15858;SDS011;8029;52.202;7.308;2023-01-26T02:33:41;33.57;;;22.77;;
15858;SDS011;8029;52.202;7.308;2023-01-26T02:36:09;28.47;;;20.13;;
15858;SDS011;8029;52.202;7.308;2023-01-26T02:38:43;26.10;;;18.80;;
15858;SDS011;8029;52.202;7.308;2023-01-26T02:41:11;28.57;;;18.73;;
15858;SDS011;8029;52.202;7.308;2023-01-26T02:43:37;30.27;;;20.83;;
15858;SDS011;8029;52.202;7.308;2023-01-26T02:46:04;30.17;;;21.53;;
15858;SDS011;8029;52.202;7.308;2023-01-26T02:48:30;30.73;;;19.83;;
15858;SDS011;8029;52.202;7.308;2023-01-26T02:51:14;27.33;;;19.73;;
15858;SDS011;8029;52.202;7.308;2023-01-26T02:53:40;28.03;;;20.03;;
15858;SDS011;8029;52.202;7.308;2023-01-26T02:56:29;25.20;;;18.10;;
15858;SDS011;8029;52.202;7.308;2023-01-26T02:58:55;23.93;;;16.77;;
15858;SDS011;8029;52.202;7.308;2023-01-26T03:01:21;25.23;;;17.20;;
15858;SDS011;8029;52.202;7.308;2023-01-26T03:03:47;27.57;;;19.70;;
15858;SDS011;8029;52.202;7.308;2023-01-26T03:06:18;32.73;;;19.83;;
15858;SDS011;8029;52.202;7.308;2023-01-26T03:08:44;27.27;;;19.00;;
15858;SDS011;8029;52.202;7.308;2023-01-26T03:11:10;26.37;;;17.77;;
15858;SDS011;8029;52.202;7.308;2023-01-26T03:13:36;25.23;;;18.27;;
15858;SDS011;8029;52.202;7.308;2023-01-26T03:16:05;23.27;;;14.47;;
15858;SDS011;8029;52.202;7.308;2023-01-26T03:18:32;26.63;;;17.93;;
15858;SDS011;8029;52.202;7.308;2023-01-26T03:21:17;26.67;;;17.00;;
15858;SDS011;8029;52.202;7.308;2023-01-26T03:24:02;24.10;;;16.70;;
15858;SDS011;8029;52.202;7.308;2023-01-26T03:26:47;23.20;;;17.13;;
15858;SDS011;8029;52.202;7.308;2023-01-26T03:29:32;26.67;;;18.27;;
15858;SDS011;8029;52.202;7.308;2023-01-26T03:31:58;21.20;;;15.93;;
15858;SDS011;8029;52.202;7.308;2023-01-26T03:34:25;26.07;;;17.07;;
15858;SDS011;8029;52.202;7.308;2023-01-26T03:36:53;29.53;;;20.97;;
15858;SDS011;8029;52.202;7.308;2023-01-26T03:39:19;24.30;;;16.57;;
15858;SDS011;8029;52.202;7.308;2023-01-26T03:42:04;24.10;;;17.90;;
15858;SDS011;8029;52.202;7.308;2023-01-26T03:44:49;25.57;;;18.33;;
15858;SDS011;8029;52.202;7.308;2023-01-26T03:47:35;26.20;;;18.30;;
15858;SDS011;8029;52.202;7.308;2023-01-26T03:50:20;25.50;;;19.13;;
15858;SDS011;8029;52.202;7.308;2023-01-26T03:55:58;27.73;;;16.70;;
15858;SDS011;8029;52.202;7.308;2023-01-26T03:58:45;29.73;;;18.83;;
15858;SDS011;8029;52.202;7.308;2023-01-26T04:01:11;21.87;;;16.53;;
15858;SDS011;8029;52.202;7.308;2023-01-26T04:03:49;20.47;;;15.43;;
15858;SDS011;8029;52.202;7.308;2023-01-26T04:06:34;21.77;;;14.87;;
15858;SDS011;8029;52.202;7.308;2023-01-26T04:09:19;26.03;;;16.93;;
15858;SDS011;8029;52.202;7.308;2023-01-26T04:11:45;21.73;;;15.17;;
15858;SDS011;8029;52.202;7.308;2023-01-26T04:14:12;20.67;;;15.83;;
15858;SDS011;8029;52.202;7.308;2023-01-26T04:17:00;22.80;;;16.80;;
15858;SDS011;8029;52.202;7.308;2023-01-26T04:19:46;24.93;;;17.27;;
15858;SDS011;8029;52.202;7.308;2023-01-26T04:22:35;23.87;;;16.77;;
15858;SDS011;8029;52.202;7.308;2023-01-26T04:25:08;26.07;;;16.80;;
15858;SDS011;8029;52.202;7.308;2023-01-26T04:27:34;26.43;;;18.57;;
15858;SDS011;8029;52.202;7.308;2023-01-26T04:30:02;23.50;;;16.40;;
15858;SDS011;8029;52.202;7.308;2023-01-26T04:32:29;22.00;;;15.13;;
15858;SDS011;8029;52.202;7.308;2023-01-26T04:34:55;21.63;;;15.33;;
15858;SDS011;8029;52.202;7.308;2023-01-26T04:37:22;17.30;;;14.03;;
15858;SDS011;8029;52.202;7.308;2023-01-26T04:39:48;18.80;;;13.90;;
15858;SDS011;8029;52.202;7.308;2023-01-26T04:42:13;18.43;;;14.17;;
15858;SDS011;8029;52.202;7.308;2023-01-26T04:44:39;18.77;;;15.17;;
15858;SDS011;8029;52.202;7.308;2023-01-26T04:47:05;19.50;;;13.83;;
15858;SDS011;8029;52.202;7.308;2023-01-26T04:49:32;15.77;;;12.83;;
15858;SDS011;8029;52.202;7.308;2023-01-26T04:51:58;15.03;;;12.03;;
15858;SDS011;8029;52.202;7.308;2023-01-26T04:54:24;17.73;;;12.67;;
15858;SDS011;8029;52.202;7.308;2023-01-26T04:56:50;18.77;;;13.83;;
15858;SDS011;8029;52.202;7.308;2023-01-26T04:59:16;26.27;;;15.23;;
15858;SDS011;8029;52.202;7.308;2023-01-26T05:01:42;20.13;;;13.67;;
15858;SDS011;8029;52.202;7.308;2023-01-26T05:04:09;14.83;;;11.43;;
15858;SDS011;8029;52.202;7.308;2023-01-26T05:06:36;15.03;;;11.30;;
15858;SDS011;8029;52.202;7.308;2023-01-26T05:09:03;17.70;;;12.57;;
15858;SDS011;8029;52.202;7.308;2023-01-26T05:11:29;20.03;;;11.73;;
15858;SDS011;8029;52.202;7.308;2023-01-26T05:13:55;15.83;;;11.40;;
15858;SDS011;8029;52.202;7.308;2023-01-26T05:16:21;22.80;;;12.37;;
15858;SDS011;8029;52.202;7.308;2023-01-26T05:18:47;12.27;;;9.23;;
15858;SDS011;8029;52.202;7.308;2023-01-26T05:21:13;14.63;;;10.20;;
15858;SDS011;8029;52.202;7.308;2023-01-26T05:23:40;16.37;;;12.37;;
15858;SDS011;8029;52.202;7.308;2023-01-26T05:26:06;17.63;;;11.87;;
15858;SDS011;8029;52.202;7.308;2023-01-26T05:28:32;18.47;;;11.33;;
15858;SDS011;8029;52.202;7.308;2023-01-26T05:30:58;14.93;;;11.27;;
15858;SDS011;8029;52.202;7.308;2023-01-26T05:33:24;15.23;;;10.63;;
15858;SDS011;8029;52.202;7.308;2023-01-26T05:35:51;12.13;;;9.63;;
15858;SDS011;8029;52.202;7.308;2023-01-26T05:38:17;13.50;;;10.07;;
15858;SDS011;8029;52.202;7.308;2023-01-26T05:40:44;15.37;;;10.77;;
15858;SDS011;8029;52.202;7.308;2023-01-26T05:43:10;18.57;;;10.13;;
15858;SDS011;8029;52.202;7.308;2023-01-26T05:45:37;10.23;;;8.07;;
15858;SDS011;8029;52.202;7.308;2023-01-26T05:48:03;15.73;;;11.13;;
15858;SDS011;8029;52.202;7.308;2023-01-26T05:50:29;11.43;;;8.70;;
15858;SDS011;8029;52.202;7.308;2023-01-26T05:52:56;11.97;;;9.10;;
15858;SDS011;8029;52.202;7.308;2023-01-26T05:55:24;12.70;;;9.00;;
15858;SDS011;8029;52.202;7.308;2023-01-26T05:57:50;13.13;;;8.73;;
15858;SDS011;8029;52.202;7.308;2023-01-26T06:00:16;11.40;;;7.97;;
15858;SDS011;8029;52.202;7.308;2023-01-26T06:02:42;10.87;;;7.67;;
15858;SDS011;8029;52.202;7.308;2023-01-26T06:05:09;14.47;;;9.03;;
15858;SDS011;8029;52.202;7.308;2023-01-26T06:07:35;14.07;;;9.50;;
15858;SDS011;8029;52.202;7.308;2023-01-26T06:10:01;14.33;;;10.10;;
15858;SDS011;8029;52.202;7.308;2023-01-26T06:12:27;10.80;;;7.33;;
15858;SDS011;8029;52.202;7.308;2023-01-26T06:14:59;13.30;;;9.83;;
15858;SDS011;8029;52.202;7.308;2023-01-26T06:17:25;10.77;;;8.03;;
15858;SDS011;8029;52.202;7.308;2023-01-26T06:19:51;10.80;;;7.03;;
15858;SDS011;8029;52.202;7.308;2023-01-26T06:22:17;11.77;;;8.50;;
15858;SDS011;8029;52.202;7.308;2023-01-26T06:24:44;9.20;;;7.07;;
15858;SDS011;8029;52.202;7.308;2023-01-26T06:27:11;13.40;;;8.90;;
15858;SDS011;8029;52.202;7.308;2023-01-26T06:29:37;8.80;;;6.50;;
15858;SDS011;8029;52.202;7.308;2023-01-26T06:32:03;9.60;;;7.50;;
15858;SDS011;8029;52.202;7.308;2023-01-26T06:34:29;12.13;;;8.40;;
15858;SDS011;8029;52.202;7.308;2023-01-26T06:36:56;10.10;;;7.57;;
15858;SDS011;8029;52.202;7.308;2023-01-26T06:39:23;9.60;;;6.93;;
15858;SDS011;8029;52.202;7.308;2023-01-26T06:41:50;11.37;;;7.80;;
15858;SDS011;8029;52.202;7.308;2023-01-26T06:44:16;13.70;;;8.90;;
15858;SDS011;8029;52.202;7.308;2023-01-26T06:46:42;8.63;;;6.37;;
15858;SDS011;8029;52.202;7.308;2023-01-26T06:49:08;11.17;;;8.27;;
15858;SDS011;8029;52.202;7.308;2023-01-26T06:51:45;9.07;;;7.10;;
15858;SDS011;8029;52.202;7.308;2023-01-26T06:54:12;9.53;;;6.67;;
15858;SDS011;8029;52.202;7.308;2023-01-26T06:56:39;10.87;;;7.50;;
15858;SDS011;8029;52.202;7.308;2023-01-26T06:59:05;10.27;;;7.33;;
15858;SDS011;8029;52.202;7.308;2023-01-26T07:01:38;8.87;;;6.90;;
15858;SDS011;8029;52.202;7.308;2023-01-26T07:04:06;13.00;;;8.70;;
15858;SDS011;8029;52.202;7.308;2023-01-26T07:06:32;14.63;;;7.20;;
15858;SDS011;8029;52.202;7.308;2023-01-26T07:08:58;7.70;;;6.03;;
15858;SDS011;8029;52.202;7.308;2023-01-26T07:11:24;9.27;;;6.33;;
15858;SDS011;8029;52.202;7.308;2023-01-26T07:13:50;11.87;;;8.57;;
15858;SDS011;8029;52.202;7.308;2023-01-26T07:16:16;8.87;;;6.53;;
15858;SDS011;8029;52.202;7.308;2023-01-26T07:18:42;10.33;;;7.53;;
15858;SDS011;8029;52.202;7.308;2023-01-26T07:21:13;11.23;;;8.00;;
15858;SDS011;8029;52.202;7.308;2023-01-26T07:23:42;9.40;;;7.17;;
15858;SDS011;8029;52.202;7.308;2023-01-26T07:26:08;6.53;;;5.33;;
15858;SDS011;8029;52.202;7.308;2023-01-26T07:28:34;10.93;;;7.57;;
15858;SDS011;8029;52.202;7.308;2023-01-26T07:31:00;12.30;;;8.10;;
15858;SDS011;8029;52.202;7.308;2023-01-26T07:33:27;14.33;;;8.47;;
15858;SDS011;8029;52.202;7.308;2023-01-26T07:35:54;11.17;;;7.47;;
15858;SDS011;8029;52.202;7.308;2023-01-26T07:38:20;8.60;;;7.33;;
15858;SDS011;8029;52.202;7.308;2023-01-26T07:40:49;8.40;;;6.20;;
15858;SDS011;8029;52.202;7.308;2023-01-26T07:43:16;8.43;;;6.63;;
15858;SDS011;8029;52.202;7.308;2023-01-26T07:48:12;9.00;;;6.23;;
15858;SDS011;8029;52.202;7.308;2023-01-26T07:50:40;6.97;;;5.33;;
15858;SDS011;8029;52.202;7.308;2023-01-26T07:53:06;7.77;;;5.47;;
15858;SDS011;8029;52.202;7.308;2023-01-26T07:55:34;10.80;;;7.53;;
15858;SDS011;8029;52.202;7.308;2023-01-26T07:58:01;7.67;;;5.83;;
15858;SDS011;8029;52.202;7.308;2023-01-26T08:00:28;7.10;;;5.57;;
15858;SDS011;8029;52.202;7.308;2023-01-26T08:02:54;16.77;;;6.60;;
15858;SDS011;8029;52.202;7.308;2023-01-26T08:05:21;10.03;;;7.30;;
15858;SDS011;8029;52.202;7.308;2023-01-26T08:07:47;7.33;;;5.77;;
15858;SDS011;8029;52.202;7.308;2023-01-26T08:10:13;16.47;;;6.20;;
15858;SDS011;8029;52.202;7.308;2023-01-26T08:12:39;9.53;;;5.87;;
15858;SDS011;8029;52.202;7.308;2023-01-26T08:15:07;15.10;;;9.20;;
15858;SDS011;8029;52.202;7.308;2023-01-26T08:17:34;16.40;;;5.87;;
15858;SDS011;8029;52.202;7.308;2023-01-26T08:20:12;7.73;;;5.87;;
15858;SDS011;8029;52.202;7.308;2023-01-26T08:22:38;13.57;;;7.07;;
15858;SDS011;8029;52.202;7.308;2023-01-26T08:25:05;13.03;;;7.93;;
15858;SDS011;8029;52.202;7.308;2023-01-26T08:27:32;18.87;;;7.33;;
15858;SDS011;8029;52.202;7.308;2023-01-26T08:29:58;9.97;;;6.13;;
15858;SDS011;8029;52.202;7.308;2023-01-26T08:32:24;14.93;;;7.43;;
15858;SDS011;8029;52.202;7.308;2023-01-26T08:34:50;7.50;;;5.97;;
15858;SDS011;8029;52.202;7.308;2023-01-26T08:37:17;9.63;;;7.20;;
15858;SDS011;8029;52.202;7.308;2023-01-26T08:39:43;7.63;;;5.43;;
15858;SDS011;8029;52.202;7.308;2023-01-26T08:42:08;7.87;;;6.20;;
15858;SDS011;8029;52.202;7.308;2023-01-26T08:44:34;15.67;;;6.73;;
15858;SDS011;8029;52.202;7.308;2023-01-26T08:47:00;8.97;;;6.40;;
15858;SDS011;8029;52.202;7.308;2023-01-26T08:49:26;10.10;;;5.90;;
15858;SDS011;8029;52.202;7.308;2023-01-26T08:51:52;9.27;;;6.20;;
15858;SDS011;8029;52.202;7.308;2023-01-26T08:54:29;9.93;;;7.00;;
15858;SDS011;8029;52.202;7.308;2023-01-26T08:56:56;7.43;;;5.73;;
15858;SDS011;8029;52.202;7.308;2023-01-26T08:59:22;8.67;;;6.10;;
15858;SDS011;8029;52.202;7.308;2023-01-26T09:01:49;10.10;;;6.67;;
15858;SDS011;8029;52.202;7.308;2023-01-26T09:04:15;7.70;;;5.83;;
15858;SDS011;8029;52.202;7.308;2023-01-26T09:06:42;9.80;;;7.47;;
15858;SDS011;8029;52.202;7.308;2023-01-26T09:09:10;9.33;;;6.57;;
15858;SDS011;8029;52.202;7.308;2023-01-26T09:11:38;8.10;;;6.07;;
15858;SDS011;8029;52.202;7.308;2023-01-26T09:14:04;9.57;;;6.37;;
15858;SDS011;8029;52.202;7.308;2023-01-26T09:16:30;10.57;;;7.10;;
15858;SDS011;8029;52.202;7.308;2023-01-26T09:18:57;10.10;;;7.87;;
15858;SDS011;8029;52.202;7.308;2023-01-26T09:21:23;8.80;;;6.10;;
15858;SDS011;8029;52.202;7.308;2023-01-26T09:23:49;10.97;;;7.73;;
15858;SDS011;8029;52.202;7.308;2023-01-26T09:26:15;9.50;;;6.87;;
15858;SDS011;8029;52.202;7.308;2023-01-26T09:28:51;25.63;;;8.30;;
15858;SDS011;8029;52.202;7.308;2023-01-26T09:31:17;11.47;;;7.57;;
15858;SDS011;8029;52.202;7.308;2023-01-26T09:33:43;11.77;;;7.77;;
15858;SDS011;8029;52.202;7.308;2023-01-26T09:36:09;20.53;;;7.40;;
15858;SDS011;8029;52.202;7.308;2023-01-26T09:38:36;13.50;;;6.00;;
15858;SDS011;8029;52.202;7.308;2023-01-26T09:41:07;9.93;;;7.30;;
15858;SDS011;8029;52.202;7.308;2023-01-26T09:48:49;6.57;;;5.67;;
15858;SDS011;8029;52.202;7.308;2023-01-26T09:51:20;9.70;;;7.60;;
15858;SDS011;8029;52.202;7.308;2023-01-26T09:53:53;16.13;;;6.90;;
15858;SDS011;8029;52.202;7.308;2023-01-26T09:56:22;13.93;;;8.23;;
15858;SDS011;8029;52.202;7.308;2023-01-26T10:01:42;18.77;;;7.00;;
15858;SDS011;8029;52.202;7.308;2023-01-26T10:06:51;16.83;;;7.40;;
15858;SDS011;8029;52.202;7.308;2023-01-26T10:09:21;21.13;;;7.97;;
15858;SDS011;8029;52.202;7.308;2023-01-26T10:11:48;7.23;;;4.80;;
15858;SDS011;8029;52.202;7.308;2023-01-26T10:14:20;10.37;;;6.90;;
15858;SDS011;8029;52.202;7.308;2023-01-26T10:16:50;12.93;;;6.57;;
15858;SDS011;8029;52.202;7.308;2023-01-26T10:19:19;40.00;;;8.17;;
15858;SDS011;8029;52.202;7.308;2023-01-26T10:21:48;33.63;;;10.10;;
15858;SDS011;8029;52.202;7.308;2023-01-26T10:24:16;8.50;;;6.70;;
15858;SDS011;8029;52.202;7.308;2023-01-26T10:26:44;13.30;;;6.03;;
15858;SDS011;8029;52.202;7.308;2023-01-26T10:29:12;11.77;;;8.07;;
15858;SDS011;8029;52.202;7.308;2023-01-26T10:31:41;11.47;;;7.00;;
15858;SDS011;8029;52.202;7.308;2023-01-26T10:36:34;18.23;;;7.67;;
15858;SDS011;8029;52.202;7.308;2023-01-26T10:39:06;11.17;;;7.27;;
15858;SDS011;8029;52.202;7.308;2023-01-26T10:41:33;13.97;;;8.57;;
15858;SDS011;8029;52.202;7.308;2023-01-26T10:46:35;12.10;;;8.03;;
15858;SDS011;8029;52.202;7.308;2023-01-26T10:49:23;10.40;;;6.60;;
15858;SDS011;8029;52.202;7.308;2023-01-26T10:52:04;10.17;;;6.90;;
15858;SDS011;8029;52.202;7.308;2023-01-26T10:54:30;10.77;;;7.40;;
15858;SDS011;8029;52.202;7.308;2023-01-26T10:57:00;14.73;;;8.37;;
15858;SDS011;8029;52.202;7.308;2023-01-26T11:02:02;11.30;;;7.60;;
15858;SDS011;8029;52.202;7.308;2023-01-26T11:04:29;11.33;;;7.47;;
15858;SDS011;8029;52.202;7.308;2023-01-26T11:06:59;11.53;;;7.10;;
15858;SDS011;8029;52.202;7.308;2023-01-26T11:09:38;14.17;;;10.37;;
15858;SDS011;8029;52.202;7.308;2023-01-26T11:12:04;13.77;;;9.40;;
15858;SDS011;8029;52.202;7.308;2023-01-26T11:14:31;11.43;;;7.63;;
15858;SDS011;8029;52.202;7.308;2023-01-26T11:16:59;7.80;;;6.30;;
15858;SDS011;8029;52.202;7.308;2023-01-26T11:22:12;13.97;;;8.23;;
15858;SDS011;8029;52.202;7.308;2023-01-26T11:38:31;12.60;;;7.47;;
15858;SDS011;8029;52.202;7.308;2023-01-26T11:40:50;22.03;;;10.13;;
15858;SDS011;8029;52.202;7.308;2023-01-26T11:43:25;14.30;;;8.07;;
15858;SDS011;8029;52.202;7.308;2023-01-26T11:51:06;21.97;;;8.60;;
15858;SDS011;8029;52.202;7.308;2023-01-26T12:01:45;15.00;;;8.90;;
15858;SDS011;8029;52.202;7.308;2023-01-26T12:04:16;19.87;;;10.27;;
15858;SDS011;8029;52.202;7.308;2023-01-26T12:06:44;15.00;;;8.60;;
15858;SDS011;8029;52.202;7.308;2023-01-26T12:11:49;30.57;;;10.10;;
15858;SDS011;8029;52.202;7.308;2023-01-26T12:25:21;12.20;;;7.33;;
15858;SDS011;8029;52.202;7.308;2023-01-26T12:33:12;14.70;;;8.70;;
15858;SDS011;8029;52.202;7.308;2023-01-26T12:45:49;14.53;;;7.77;;
15858;SDS011;8029;52.202;7.308;2023-01-26T12:50:51;18.87;;;7.33;;
15858;SDS011;8029;52.202;7.308;2023-01-26T12:53:26;13.83;;;7.73;;
15858;SDS011;8029;52.202;7.308;2023-01-26T12:56:09;14.20;;;8.37;;
15858;SDS011;8029;52.202;7.308;2023-01-26T12:58:38;14.13;;;7.70;;
15858;SDS011;8029;52.202;7.308;2023-01-26T13:01:09;18.20;;;8.00;;
15858;SDS011;8029;52.202;7.308;2023-01-26T13:03:37;16.67;;;7.83;;
15858;SDS011;8029;52.202;7.308;2023-01-26T13:16:50;11.10;;;6.47;;
15858;SDS011;8029;52.202;7.308;2023-01-26T13:19:36;14.40;;;7.60;;
15858;SDS011;8029;52.202;7.308;2023-01-26T13:24:55;13.07;;;6.90;;
15858;SDS011;8029;52.202;7.308;2023-01-26T13:29:58;12.73;;;6.65;;
15858;SDS011;8029;52.202;7.308;2023-01-26T13:35:00;14.35;;;6.75;;
15858;SDS011;8029;52.202;7.308;2023-01-26T13:40:37;9.73;;;6.50;;
15858;SDS011;8029;52.202;7.308;2023-01-26T13:43:17;9.90;;;5.82;;
15858;SDS011;8029;52.202;7.308;2023-01-26T13:48:31;14.40;;;5.80;;
15858;SDS011;8029;52.202;7.308;2023-01-26T13:51:01;9.23;;;5.40;;
15858;SDS011;8029;52.202;7.308;2023-01-26T13:53:31;12.55;;;5.25;;
15858;SDS011;8029;52.202;7.308;2023-01-26T13:55:58;13.55;;;6.68;;
15858;SDS011;8029;52.202;7.308;2023-01-26T13:58:28;8.52;;;4.32;;
15858;SDS011;8029;52.202;7.308;2023-01-26T14:00:58;13.02;;;6.78;;
15858;SDS011;8029;52.202;7.308;2023-01-26T14:03:24;8.48;;;5.70;;
15858;SDS011;8029;52.202;7.308;2023-01-26T14:05:58;12.00;;;4.72;;
15858;SDS011;8029;52.202;7.308;2023-01-26T14:08:25;7.85;;;4.15;;
15858;SDS011;8029;52.202;7.308;2023-01-26T14:10:51;5.55;;;3.65;;
15858;SDS011;8029;52.202;7.308;2023-01-26T14:13:36;7.85;;;4.28;;
15858;SDS011;8029;52.202;7.308;2023-01-26T14:16:03;7.75;;;4.68;;
15858;SDS011;8029;52.202;7.308;2023-01-26T14:18:30;6.32;;;4.07;;
15858;SDS011;8029;52.202;7.308;2023-01-26T14:20:56;10.13;;;4.07;;
15858;SDS011;8029;52.202;7.308;2023-01-26T14:23:26;9.25;;;5.57;;
15858;SDS011;8029;52.202;7.308;2023-01-26T14:25:57;12.07;;;5.10;;
15858;SDS011;8029;52.202;7.308;2023-01-26T14:28:27;4.93;;;3.30;;
15858;SDS011;8029;52.202;7.308;2023-01-26T14:31:05;8.23;;;4.57;;
15858;SDS011;8029;52.202;7.308;2023-01-26T14:33:34;7.55;;;4.43;;
15858;SDS011;8029;52.202;7.308;2023-01-26T14:36:01;31.67;;;7.07;;
15858;SDS011;8029;52.202;7.308;2023-01-26T14:38:28;8.95;;;4.70;;
15858;SDS011;8029;52.202;7.308;2023-01-26T14:40:57;13.50;;;4.68;;
15858;SDS011;8029;52.202;7.308;2023-01-26T14:43:24;7.65;;;3.90;;
15858;SDS011;8029;52.202;7.308;2023-01-26T14:45:54;9.68;;;5.13;;
15858;SDS011;8029;52.202;7.308;2023-01-26T14:48:24;13.50;;;4.20;;
15858;SDS011;8029;52.202;7.308;2023-01-26T14:50:51;9.38;;;4.45;;
15858;SDS011;8029;52.202;7.308;2023-01-26T14:53:21;11.20;;;5.25;;
15858;SDS011;8029;52.202;7.308;2023-01-26T14:56:22;9.07;;;4.68;;
15858;SDS011;8029;52.202;7.308;2023-01-26T14:58:50;9.20;;;5.22;;
15858;SDS011;8029;52.202;7.308;2023-01-26T15:01:25;7.70;;;4.95;;
15858;SDS011;8029;52.202;7.308;2023-01-26T15:03:56;13.15;;;5.00;;
15858;SDS011;8029;52.202;7.308;2023-01-26T15:06:24;14.98;;;5.60;;
15858;SDS011;8029;52.202;7.308;2023-01-26T15:08:57;10.82;;;5.55;;
15858;SDS011;8029;52.202;7.308;2023-01-26T15:11:27;12.98;;;5.22;;
15858;SDS011;8029;52.202;7.308;2023-01-26T15:14:55;20.73;;;5.03;;
15858;SDS011;8029;52.202;7.308;2023-01-26T15:17:02;9.10;;;4.63;;
15858;SDS011;8029;52.202;7.308;2023-01-26T15:19:35;7.97;;;4.03;;
15858;SDS011;8029;52.202;7.308;2023-01-26T15:22:03;8.90;;;4.40;;
15858;SDS011;8029;52.202;7.308;2023-01-26T15:24:29;5.70;;;4.05;;
15858;SDS011;8029;52.202;7.308;2023-01-26T15:27:03;16.67;;;4.97;;
15858;SDS011;8029;52.202;7.308;2023-01-26T15:29:32;16.30;;;6.05;;
15858;SDS011;8029;52.202;7.308;2023-01-26T15:31:58;13.35;;;5.10;;
15858;SDS011;8029;52.202;7.308;2023-01-26T15:34:29;11.30;;;5.72;;
15858;SDS011;8029;52.202;7.308;2023-01-26T15:36:56;7.97;;;4.68;;
15858;SDS011;8029;52.202;7.308;2023-01-26T15:39:22;6.78;;;4.57;;
15858;SDS011;8029;52.202;7.308;2023-01-26T15:41:59;11.02;;;4.78;;
15858;SDS011;8029;52.202;7.308;2023-01-26T15:44:27;10.57;;;4.47;;
15858;SDS011;8029;52.202;7.308;2023-01-26T15:46:53;5.18;;;3.83;;
15858;SDS011;8029;52.202;7.308;2023-01-26T15:49:20;6.22;;;3.65;;
15858;SDS011;8029;52.202;7.308;2023-01-26T15:51:47;6.93;;;4.80;;
15858;SDS011;8029;52.202;7.308;2023-01-26T15:54:13;7.25;;;5.18;;
15858;SDS011;8029;52.202;7.308;2023-01-26T15:56:39;12.43;;;8.00;;
15858;SDS011;8029;52.202;7.308;2023-01-26T15:59:05;14.00;;;7.25;;
15858;SDS011;8029;52.202;7.308;2023-01-26T16:01:31;8.07;;;5.28;;
15858;SDS011;8029;52.202;7.308;2023-01-26T16:03:58;8.57;;;5.07;;
15858;SDS011;8029;52.202;7.308;2023-01-26T16:06:28;12.70;;;5.63;;
15858;SDS011;8029;52.202;7.308;2023-01-26T16:08:54;5.13;;;3.58;;
15858;SDS011;8029;52.202;7.308;2023-01-26T16:11:20;8.13;;;4.72;;
15858;SDS011;8029;52.202;7.308;2023-01-26T16:13:47;7.03;;;4.47;;
15858;SDS011;8029;52.202;7.308;2023-01-26T16:16:14;8.63;;;4.65;;
15858;SDS011;8029;52.202;7.308;2023-01-26T16:18:41;17.27;;;8.45;;
15858;SDS011;8029;52.202;7.308;2023-01-26T16:21:15;8.93;;;5.65;;
15858;SDS011;8029;52.202;7.308;2023-01-26T16:23:41;11.52;;;5.88;;
15858;SDS011;8029;52.202;7.308;2023-01-26T16:26:08;11.05;;;3.75;;
15858;SDS011;8029;52.202;7.308;2023-01-26T16:28:35;6.10;;;3.63;;
15858;SDS011;8029;52.202;7.308;2023-01-26T16:31:01;8.10;;;3.83;;
15858;SDS011;8029;52.202;7.308;2023-01-26T16:33:27;5.43;;;1.85;;
15858;SDS011;8029;52.202;7.308;2023-01-26T16:35:53;4.90;;;2.85;;
15858;SDS011;8029;52.202;7.308;2023-01-26T16:38:19;7.80;;;2.80;;
15858;SDS011;8029;52.202;7.308;2023-01-26T16:40:45;6.32;;;3.47;;
15858;SDS011;8029;52.202;7.308;2023-01-26T16:43:14;4.55;;;2.17;;
15858;SDS011;8029;52.202;7.308;2023-01-26T16:45:42;4.97;;;2.35;;
15858;SDS011;8029;52.202;7.308;2023-01-26T16:48:12;6.18;;;2.85;;
15858;SDS011;8029;52.202;7.308;2023-01-26T16:50:39;3.13;;;1.70;;
15858;SDS011;8029;52.202;7.308;2023-01-26T16:55:50;3.22;;;2.33;;
15858;SDS011;8029;52.202;7.308;2023-01-26T16:58:16;12.63;;;2.92;;